createdAt,value
2022-07-29T00:01:57.162Z,58.06
2022-07-29T00:04:28.150Z,59.27
2022-07-29T00:06:58.637Z,60.27
2022-07-29T00:09:29.505Z,60.29
2022-07-29T00:12:02.213Z,61.09
2022-07-29T00:14:32.870Z,61.69
2022-07-29T00:17:03.516Z,62.08
2022-07-29T00:19:35.454Z,62.29
2022-07-29T00:22:06.190Z,62.37
2022-07-29T00:24:37.236Z,60.63
2022-07-29T00:27:07.966Z,57.32
2022-07-29T00:29:38.751Z,56.58
2022-07-29T00:32:10.970Z,57.70
2022-07-29T00:34:59.467Z,58.39
2022-07-29T00:37:30.251Z,59.60
2022-07-29T00:40:01.937Z,60.14
2022-07-29T00:42:32.437Z,60.51
2022-07-29T00:45:03.203Z,61.02
2022-07-29T00:47:33.553Z,61.52
2022-07-29T00:50:05.401Z,61.89
2022-07-29T00:52:37.864Z,61.65
2022-07-29T00:55:10.189Z,63.02
2022-07-29T00:57:40.984Z,62.50
2022-07-29T01:00:14.174Z,57.16
2022-07-29T01:02:45.152Z,56.01
2022-07-29T01:05:15.995Z,57.00
2022-07-29T01:07:47.433Z,57.92
2022-07-29T01:10:18.420Z,58.92
2022-07-29T01:12:50.216Z,59.46
2022-07-29T01:15:21.179Z,59.75
2022-07-29T01:17:54.930Z,60.19
2022-07-29T01:20:31.572Z,60.56
2022-07-29T01:23:25.539Z,60.41
2022-07-29T01:26:06.196Z,60.94
2022-07-29T01:28:54.920Z,61.02
2022-07-29T01:31:29.718Z,61.36
2022-07-29T01:34:05.076Z,61.87
2022-07-29T01:36:38.621Z,61.80
2022-07-29T01:39:10.995Z,62.03
2022-07-29T01:41:46.027Z,62.30
2022-07-29T01:44:18.341Z,63.57
2022-07-29T01:46:52.336Z,61.16
2022-07-29T01:49:26.457Z,56.99
2022-07-29T01:52:05.761Z,55.83
2022-07-29T01:54:37.463Z,57.02
2022-07-29T01:57:09.779Z,58.13
2022-07-29T01:59:41.338Z,59.08
2022-07-29T02:02:13.376Z,59.34
2022-07-29T02:04:45.548Z,59.76
2022-07-29T02:07:19.271Z,60.48
2022-07-29T02:09:50.317Z,60.71
2022-07-29T02:12:21.605Z,61.45
2022-07-29T02:14:53.771Z,61.80
2022-07-29T02:17:27.064Z,62.02
2022-07-29T02:19:55.909Z,64.29
2022-07-29T02:22:27.019Z,63.37
2022-07-29T02:24:57.744Z,57.75
2022-07-29T02:27:29.546Z,56.40
2022-07-29T02:30:02.244Z,57.39
2022-07-29T02:32:34.278Z,58.36
2022-07-29T02:35:05.401Z,59.16
2022-07-29T02:37:36.354Z,59.79
2022-07-29T02:40:11.268Z,60.78
2022-07-29T02:42:43.493Z,61.04
2022-07-29T02:45:13.895Z,61.85
2022-07-29T02:47:46.016Z,62.33
2022-07-29T02:50:17.912Z,63.14
2022-07-29T02:52:51.558Z,57.78
2022-07-29T02:55:27.459Z,57.16
2022-07-29T02:58:02.056Z,58.24
2022-07-29T03:00:36.658Z,59.09
2022-07-29T03:03:13.240Z,60.40
2022-07-29T03:05:43.813Z,60.71
2022-07-29T03:08:15.156Z,61.43
2022-07-29T03:10:48.550Z,62.56
2022-07-29T03:13:20.248Z,61.95
2022-07-29T03:15:51.629Z,57.08
2022-07-29T03:18:22.403Z,57.64
2022-07-29T03:20:52.926Z,58.98
2022-07-29T03:23:25.033Z,60.44
2022-07-29T03:25:56.002Z,61.48
2022-07-29T03:28:28.393Z,63.69
2022-07-29T03:30:59.122Z,60.91
2022-07-29T03:33:31.512Z,57.83
2022-07-29T03:36:03.979Z,58.28
2022-07-29T03:38:36.052Z,59.87
2022-07-29T03:41:08.470Z,60.89
2022-07-29T03:43:49.305Z,61.84
2022-07-29T03:46:23.223Z,62.86
2022-07-29T03:48:57.941Z,60.22
2022-07-29T03:51:33.137Z,57.73
2022-07-29T03:54:09.945Z,57.93
2022-07-29T03:56:42.528Z,59.53
2022-07-29T03:59:13.297Z,60.67
2022-07-29T04:01:44.530Z,61.29
2022-07-29T04:04:15.338Z,61.69
2022-07-29T04:06:48.289Z,63.91
2022-07-29T04:09:19.136Z,61.82
2022-07-29T04:12:01.616Z,56.95
2022-07-29T04:14:35.731Z,56.77
2022-07-29T04:17:06.704Z,58.06
2022-07-29T04:19:37.568Z,59.56
2022-07-29T04:22:08.266Z,60.08
2022-07-29T04:24:41.827Z,60.97
2022-07-29T04:27:14.957Z,61.18
2022-07-29T04:29:56.179Z,61.54
2022-07-29T04:32:28.200Z,61.97
2022-07-29T04:34:59.040Z,62.69
2022-07-29T04:37:29.976Z,60.96
2022-07-29T04:40:00.913Z,57.36
2022-07-29T04:42:31.853Z,57.87
2022-07-29T04:45:03.293Z,59.20
2022-07-29T04:47:38.434Z,60.18
2022-07-29T04:50:10.294Z,60.95
2022-07-29T04:52:40.851Z,61.15
2022-07-29T04:55:11.694Z,61.39
2022-07-29T04:57:42.390Z,61.62
2022-07-29T05:00:13.938Z,62.12
2022-07-29T05:02:44.363Z,62.07
2022-07-29T05:05:15.213Z,62.46
2022-07-29T05:07:45.571Z,61.88
2022-07-29T05:10:16.265Z,57.52
2022-07-29T05:12:46.790Z,57.03
2022-07-29T05:15:18.699Z,58.28
2022-07-29T05:17:49.278Z,59.43
2022-07-29T05:20:20.249Z,59.54
2022-07-29T05:22:50.952Z,60.54
2022-07-29T05:25:22.715Z,60.80
2022-07-29T05:27:53.650Z,60.69
2022-07-29T05:30:24.380Z,61.07
2022-07-29T05:32:55.117Z,61.00
2022-07-29T05:35:26.045Z,61.34
2022-07-29T05:37:56.888Z,61.35
2022-07-29T05:40:27.700Z,61.25
2022-07-29T05:42:59.092Z,61.04
2022-07-29T05:45:31.396Z,60.96
2022-07-29T05:48:02.384Z,61.12
2022-07-29T05:50:33.304Z,60.94
2022-07-29T05:53:19.389Z,60.63
2022-07-29T05:55:51.679Z,60.79
2022-07-29T05:58:22.490Z,60.70
2022-07-29T06:00:54.169Z,60.81
2022-07-29T06:03:24.902Z,60.26
2022-07-29T06:05:55.632Z,60.11
2022-07-29T06:08:26.163Z,60.29
2022-07-29T06:10:57.348Z,60.03
2022-07-29T06:13:27.829Z,60.12
2022-07-29T06:15:58.965Z,60.29
2022-07-29T06:18:30.422Z,60.29
2022-07-29T06:21:01.050Z,60.06
2022-07-29T06:23:31.862Z,59.56
2022-07-29T06:26:03.079Z,59.95
2022-07-29T06:28:33.661Z,59.56
2022-07-29T06:31:04.964Z,59.45
2022-07-29T06:33:35.741Z,59.56
2022-07-29T06:36:07.603Z,59.16
2022-07-29T06:38:42.905Z,59.28
2022-07-29T06:41:18.332Z,59.23
2022-07-29T06:43:52.342Z,58.84
2022-07-29T06:46:25.816Z,58.61
2022-07-29T06:48:56.774Z,58.14
2022-07-29T06:51:28.550Z,57.77
2022-07-29T06:54:03.231Z,58.07
2022-07-29T06:56:38.573Z,58.01
2022-07-29T06:59:11.444Z,58.09
2022-07-29T07:01:42.932Z,57.92
2022-07-29T07:04:15.244Z,57.81
2022-07-29T07:06:46.304Z,57.46
2022-07-29T07:09:16.769Z,56.82
2022-07-29T07:11:49.551Z,56.85
2022-07-29T07:14:21.234Z,56.86
2022-07-29T07:16:52.696Z,56.71
2022-07-29T07:19:25.910Z,57.10
2022-07-29T07:21:56.950Z,57.44
2022-07-29T07:24:28.173Z,57.36
2022-07-29T07:26:58.870Z,57.46
2022-07-29T07:29:29.337Z,57.49
2022-07-29T07:32:01.464Z,57.04
2022-07-29T07:34:32.666Z,57.05
2022-07-29T07:37:03.748Z,57.08
2022-07-29T07:39:34.641Z,57.20
2022-07-29T07:42:05.418Z,56.91
2022-07-29T07:44:51.298Z,56.80
2022-07-29T07:47:28.011Z,56.91
2022-07-29T07:49:59.385Z,56.73
2022-07-29T07:52:30.527Z,56.92
2022-07-29T07:55:01.767Z,56.86
2022-07-29T07:57:32.567Z,56.69
2022-07-29T08:00:03.628Z,56.83
2022-07-29T08:02:44.082Z,56.72
2022-07-29T08:05:18.286Z,56.42
2022-07-29T08:07:49.182Z,56.17
2022-07-29T08:10:41.402Z,56.06
2022-07-29T08:13:13.155Z,55.83
2022-07-29T08:15:44.537Z,56.02
2022-07-29T08:18:15.475Z,55.19
2022-07-29T08:20:46.268Z,55.15
2022-07-29T08:23:17.006Z,55.24
2022-07-29T08:25:47.544Z,55.36
2022-07-29T08:28:20.676Z,55.42
2022-07-29T08:30:51.507Z,54.90
2022-07-29T08:33:22.141Z,55.16
2022-07-29T08:35:53.306Z,55.46
2022-07-29T08:38:23.856Z,54.61
2022-07-29T08:40:54.800Z,54.69
2022-07-29T08:43:25.530Z,54.22
2022-07-29T08:45:57.041Z,53.84
2022-07-29T08:48:27.627Z,54.14
2022-07-29T08:50:58.805Z,54.05
2022-07-29T08:53:31.128Z,54.11
2022-07-29T08:56:02.414Z,54.06
2022-07-29T08:58:36.710Z,53.66
2022-07-29T09:01:12.194Z,53.71
2022-07-29T09:03:43.572Z,52.86
2022-07-29T09:06:16.057Z,52.62
2022-07-29T09:08:45.149Z,52.39
2022-07-29T09:11:15.818Z,52.31
2022-07-29T09:13:46.513Z,52.11
2022-07-29T09:16:31.905Z,51.63
2022-07-29T09:19:21.483Z,51.54
2022-07-29T09:22:03.665Z,51.60
2022-07-29T09:24:42.084Z,50.67
2022-07-29T09:27:19.839Z,50.63
2022-07-29T09:29:57.238Z,50.74
2022-07-29T09:32:28.409Z,50.98
2022-07-29T09:35:18.034Z,50.67
2022-07-29T09:37:49.847Z,50.06
2022-07-29T09:40:21.711Z,49.77
2022-07-29T09:42:53.926Z,49.44
2022-07-29T09:45:30.895Z,49.63
2022-07-29T09:48:04.660Z,49.65
2022-07-29T09:50:38.958Z,49.62
2022-07-29T09:53:11.265Z,49.56
2022-07-29T09:55:51.683Z,49.52
2022-07-29T09:58:23.591Z,49.69
2022-07-29T10:00:54.892Z,49.47
2022-07-29T10:03:26.027Z,49.01
2022-07-29T10:06:10.511Z,49.01
2022-07-29T10:08:42.804Z,49.38
2022-07-29T10:11:14.330Z,49.93
2022-07-29T10:13:46.746Z,49.12
2022-07-29T10:16:18.004Z,49.22
2022-07-29T10:18:49.049Z,48.83
2022-07-29T10:21:34.996Z,48.84
2022-07-29T10:24:14.823Z,48.34
2022-07-29T10:26:47.708Z,48.60
2022-07-29T10:29:18.309Z,48.64
2022-07-29T10:31:52.484Z,48.45
2022-07-29T10:34:25.973Z,48.71
2022-07-29T10:36:59.174Z,48.76
2022-07-29T10:39:44.455Z,48.66
2022-07-29T10:42:20.189Z,48.32
2022-07-29T10:45:00.830Z,48.52
2022-07-29T10:47:31.675Z,48.41
2022-07-29T10:50:03.866Z,48.57
2022-07-29T10:52:54.042Z,48.28
2022-07-29T10:55:35.888Z,47.68
2022-07-29T10:58:18.082Z,47.73
2022-07-29T11:00:50.397Z,47.83
2022-07-29T11:03:38.166Z,47.30
2022-07-29T11:06:08.932Z,47.69
2022-07-29T11:08:40.711Z,47.68
2022-07-29T11:11:30.643Z,47.88
2022-07-29T11:14:03.425Z,48.04
2022-07-29T11:16:47.829Z,48.20
2022-07-29T11:19:30.343Z,48.06
2022-07-29T11:21:59.682Z,48.16
2022-07-29T11:24:32.439Z,47.74
2022-07-29T11:27:10.221Z,47.54
2022-07-29T11:29:43.045Z,47.36
2022-07-29T11:32:18.367Z,47.22
2022-07-29T11:35:17.484Z,47.48
2022-07-29T11:37:52.170Z,47.53
2022-07-29T11:40:26.075Z,47.01
2022-07-29T11:42:56.704Z,46.59
2022-07-29T11:45:47.313Z,46.01
2022-07-29T11:48:31.753Z,45.80
2022-07-29T11:51:12.098Z,46.31
2022-07-29T11:53:48.962Z,45.73
2022-07-29T11:56:25.584Z,44.91
2022-07-29T11:59:05.298Z,44.43
2022-07-29T12:01:38.811Z,44.36
2022-07-29T12:04:09.989Z,44.50
2022-07-29T12:06:41.475Z,44.73
2022-07-29T12:09:14.440Z,44.74
2022-07-29T12:11:47.486Z,45.09
2022-07-29T12:14:31.619Z,44.99
2022-07-29T12:17:02.712Z,44.63
2022-07-29T12:19:46.303Z,44.51
2022-07-29T12:22:26.707Z,42.92
2022-07-29T12:25:31.888Z,41.72
2022-07-29T12:28:04.346Z,40.42
2022-07-29T12:30:40.018Z,39.65
2022-07-29T12:33:19.566Z,39.18
2022-07-29T12:36:03.770Z,38.92
2022-07-29T12:38:37.922Z,38.92
2022-07-29T12:41:08.807Z,38.47
2022-07-29T12:43:39.946Z,38.44
2022-07-29T12:46:15.939Z,38.64
2022-07-29T12:48:47.753Z,38.57
2022-07-29T12:51:18.217Z,38.13
2022-07-29T12:54:02.492Z,38.61
2022-07-29T12:56:42.646Z,38.47
2022-07-29T12:59:18.640Z,38.66
2022-07-29T13:01:50.440Z,38.33
2022-07-29T13:04:28.777Z,38.51
2022-07-29T13:07:04.594Z,39.14
2022-07-29T13:09:42.160Z,39.56
2022-07-29T13:12:13.814Z,40.16
2022-07-29T13:14:45.315Z,40.44
2022-07-29T13:17:17.118Z,39.99
2022-07-29T13:19:48.949Z,40.44
2022-07-29T13:22:20.538Z,40.75
2022-07-29T13:24:52.611Z,41.04
2022-07-29T13:27:21.756Z,41.34
2022-07-29T13:29:53.857Z,41.36
2022-07-29T13:32:28.450Z,41.43
2022-07-29T13:35:05.398Z,40.57
2022-07-29T13:37:39.718Z,39.65
2022-07-29T13:40:11.680Z,38.39
2022-07-29T13:42:40.928Z,37.75
2022-07-29T13:45:13.030Z,36.96
2022-07-29T13:47:47.664Z,35.79
2022-07-29T13:50:20.073Z,35.05
2022-07-29T13:52:51.919Z,35.24
2022-07-29T13:55:22.499Z,34.62
2022-07-29T13:57:52.997Z,34.27
2022-07-29T14:00:25.025Z,34.22
2022-07-29T14:02:55.580Z,34.92
2022-07-29T14:05:26.242Z,35.54
2022-07-29T14:07:56.731Z,35.74
2022-07-29T14:10:28.534Z,35.66
2022-07-29T14:12:57.584Z,35.86
2022-07-29T14:15:27.907Z,36.30
2022-07-29T14:17:58.607Z,36.30
2022-07-29T14:20:30.773Z,36.28
2022-07-29T14:23:01.774Z,36.89
2022-07-29T14:25:32.621Z,37.29
2022-07-29T14:28:03.927Z,37.54
2022-07-29T14:30:34.506Z,37.58
2022-07-29T14:33:05.267Z,37.88
2022-07-29T14:35:36.167Z,38.25
2022-07-29T14:38:06.898Z,38.70
2022-07-29T14:40:37.442Z,39.13
2022-07-29T14:43:08.350Z,39.16
2022-07-29T14:45:38.979Z,39.41
2022-07-29T14:48:10.105Z,39.62
2022-07-29T14:50:40.674Z,39.81
2022-07-29T14:53:13.277Z,40.18
2022-07-29T14:55:43.837Z,40.52
2022-07-29T14:58:16.689Z,40.89
2022-07-29T15:00:47.388Z,41.01
2022-07-29T15:03:23.996Z,41.56
2022-07-29T15:05:55.107Z,42.09
2022-07-29T15:08:26.717Z,42.44
2022-07-29T15:10:58.630Z,43.22
2022-07-29T15:13:29.308Z,43.67
2022-07-29T15:16:00.425Z,43.61
2022-07-29T15:18:31.405Z,43.71
2022-07-29T15:21:03.433Z,43.98
2022-07-29T15:23:34.856Z,44.34
2022-07-29T15:26:06.050Z,44.68
2022-07-29T15:28:37.087Z,45.06
2022-07-29T15:31:07.783Z,45.28
2022-07-29T15:33:38.310Z,45.78
2022-07-29T15:36:09.489Z,45.88
2022-07-29T15:38:42.051Z,46.14
2022-07-29T15:41:15.507Z,46.42
2022-07-29T15:43:44.456Z,46.72
2022-07-29T15:46:34.657Z,48.08
2022-07-29T15:49:06.432Z,50.83
2022-07-29T15:51:37.296Z,52.30
2022-07-29T15:54:07.980Z,53.53
2022-07-29T15:56:39.012Z,54.11
2022-07-29T15:59:09.646Z,55.16
2022-07-29T16:01:53.299Z,56.16
2022-07-29T16:04:24.165Z,56.75
2022-07-29T16:06:55.320Z,56.30
2022-07-29T16:09:26.305Z,56.71
2022-07-29T16:11:56.936Z,58.09
2022-07-29T16:14:28.169Z,57.92
2022-07-29T16:17:02.670Z,58.75
2022-07-29T16:19:33.430Z,61.57
2022-07-29T16:22:04.783Z,65.99
2022-07-29T16:24:35.109Z,62.56
2022-07-29T16:27:06.226Z,60.20
2022-07-29T16:29:37.433Z,62.25
2022-07-29T16:32:08.911Z,64.42
2022-07-29T16:34:40.036Z,63.57
2022-07-29T16:37:10.918Z,62.65
2022-07-29T16:39:41.160Z,60.99
2022-07-29T16:42:25.784Z,62.74
2022-07-29T16:45:03.235Z,62.46
2022-07-29T16:47:34.222Z,63.06
2022-07-29T16:50:05.438Z,62.91
2022-07-29T16:52:37.789Z,63.28
2022-07-29T16:55:09.154Z,62.71
2022-07-29T16:57:39.966Z,63.26
2022-07-29T17:00:11.555Z,64.59
2022-07-29T17:02:42.312Z,64.16
2022-07-29T17:05:13.666Z,63.66
2022-07-29T17:07:45.113Z,62.77
2022-07-29T17:10:15.531Z,63.44
2022-07-29T17:12:46.572Z,64.01
2022-07-29T17:15:18.739Z,63.18
2022-07-29T17:17:56.303Z,63.07
2022-07-29T17:20:27.925Z,63.74
2022-07-29T17:22:59.079Z,63.23
2022-07-29T17:25:29.872Z,63.10
2022-07-29T17:28:01.343Z,63.95
2022-07-29T17:30:32.148Z,63.53
2022-07-29T17:33:03.303Z,63.92
2022-07-29T17:35:51.276Z,64.03
2022-07-29T17:38:22.578Z,63.03
2022-07-29T17:40:53.007Z,63.14
2022-07-29T17:43:23.955Z,64.48
2022-07-29T17:45:59.327Z,65.01
2022-07-29T17:48:30.635Z,64.76
2022-07-29T17:51:00.973Z,64.41
2022-07-29T17:53:31.992Z,64.04
2022-07-29T17:56:03.243Z,64.78
2022-07-29T17:58:34.537Z,63.55
2022-07-29T18:01:04.911Z,63.23
2022-07-29T18:03:35.959Z,63.83
2022-07-29T18:06:08.737Z,64.39
2022-07-29T18:08:40.546Z,64.18
2022-07-29T18:11:14.862Z,64.23
2022-07-29T18:13:46.099Z,64.56
2022-07-29T18:16:16.720Z,64.75
2022-07-29T18:18:47.720Z,65.63
2022-07-29T18:21:42.684Z,65.66
2022-07-29T18:24:11.102Z,66.47
2022-07-29T18:26:41.629Z,66.18
2022-07-29T18:29:12.724Z,66.92
2022-07-29T18:31:43.174Z,67.45
2022-07-29T18:34:14.193Z,68.13
2022-07-29T18:36:46.071Z,68.15
2022-07-29T18:39:20.999Z,68.08
2022-07-29T18:41:52.180Z,68.15
2022-07-29T18:44:23.107Z,67.75
2022-07-29T18:46:53.750Z,67.62
2022-07-29T18:49:25.142Z,67.86
2022-07-29T18:51:57.146Z,67.58
2022-07-29T18:54:28.273Z,67.57
2022-07-29T18:56:58.834Z,67.76
2022-07-29T18:59:31.502Z,67.16
2022-07-29T19:02:02.215Z,67.09
2022-07-29T19:04:33.375Z,67.14
2022-07-29T19:07:04.525Z,66.70
2022-07-29T19:09:37.167Z,66.43
2022-07-29T19:12:20.129Z,66.39
2022-07-29T19:14:51.316Z,66.29
2022-07-29T19:17:21.788Z,65.42
2022-07-29T19:19:54.201Z,62.18
2022-07-29T19:22:24.586Z,62.14
2022-07-29T19:24:55.833Z,62.57
2022-07-29T19:27:26.713Z,63.25
2022-07-29T19:29:59.442Z,63.79
2022-07-29T19:32:30.077Z,65.58
2022-07-29T19:35:18.735Z,66.17
2022-07-29T19:37:49.163Z,65.74
2022-07-29T19:40:20.505Z,64.14
2022-07-29T19:42:51.920Z,65.64
2022-07-29T19:45:23.611Z,67.20
2022-07-29T19:47:59.089Z,66.92
2022-07-29T19:50:32.238Z,66.28
2022-07-29T19:53:03.023Z,66.44
2022-07-29T19:55:34.193Z,66.18
2022-07-29T19:58:06.293Z,64.31
2022-07-29T20:00:40.098Z,63.95
2022-07-29T20:03:10.683Z,63.90
2022-07-29T20:05:42.482Z,63.98
2022-07-29T20:08:19.149Z,63.18
2022-07-29T20:10:49.885Z,63.08
2022-07-29T20:13:20.162Z,62.94
2022-07-29T20:15:51.241Z,63.11
2022-07-29T20:18:21.520Z,63.21
2022-07-29T20:20:52.252Z,63.43
2022-07-29T20:23:23.380Z,63.69
2022-07-29T20:25:54.131Z,63.61
2022-07-29T20:28:25.567Z,64.10
2022-07-29T20:30:56.570Z,63.82
2022-07-29T20:33:26.974Z,63.72
2022-07-29T20:35:58.353Z,63.29
2022-07-29T20:38:28.784Z,62.57
2022-07-29T20:40:59.793Z,62.85
2022-07-29T20:43:30.580Z,63.31
2022-07-29T20:46:07.556Z,63.31
2022-07-29T20:48:39.440Z,63.14
2022-07-29T20:51:10.144Z,63.06
2022-07-29T20:53:40.907Z,62.66
2022-07-29T20:56:13.104Z,62.79
2022-07-29T20:58:43.445Z,62.62
2022-07-29T21:01:14.606Z,62.55
2022-07-29T21:03:45.469Z,62.80
2022-07-29T21:06:17.379Z,63.46
2022-07-29T21:08:47.909Z,63.37
2022-07-29T21:11:18.852Z,62.81
2022-07-29T21:14:09.246Z,62.90
2022-07-29T21:16:40.283Z,62.63
2022-07-29T21:19:10.709Z,62.69
2022-07-29T21:21:41.444Z,62.91
2022-07-29T21:24:12.072Z,62.76
2022-07-29T21:26:50.635Z,62.83
2022-07-29T21:29:30.038Z,62.57
2022-07-29T21:32:00.942Z,62.20
2022-07-29T21:34:31.387Z,62.29
2022-07-29T21:37:02.248Z,62.44
2022-07-29T21:39:32.752Z,62.60
2022-07-29T21:42:04.421Z,62.39
2022-07-29T21:44:38.284Z,61.88
2022-07-29T21:47:09.260Z,62.02
2022-07-29T21:49:39.679Z,61.67
2022-07-29T21:52:10.723Z,61.63
2022-07-29T21:54:41.724Z,61.85
2022-07-29T21:57:12.715Z,62.50
2022-07-29T21:59:43.128Z,62.74
2022-07-29T22:02:13.963Z,62.74
2022-07-29T22:04:44.452Z,62.50
2022-07-29T22:07:15.395Z,62.54
2022-07-29T22:09:46.059Z,62.73
2022-07-29T22:12:16.868Z,62.94
2022-07-29T22:14:47.096Z,62.59
2022-07-29T22:17:19.965Z,62.60
2022-07-29T22:19:50.325Z,62.39
2022-07-29T22:22:21.565Z,61.91
2022-07-29T22:24:52.085Z,61.99
2022-07-29T22:27:22.927Z,61.85
2022-07-29T22:29:53.196Z,61.82
2022-07-29T22:32:24.087Z,61.62
2022-07-29T22:34:54.511Z,61.71
2022-07-29T22:37:25.761Z,61.96
2022-07-29T22:39:56.085Z,62.32
2022-07-29T22:42:27.125Z,62.44
2022-07-29T22:44:57.489Z,62.69
2022-07-29T22:47:45.911Z,62.37
2022-07-29T22:50:18.574Z,62.41
2022-07-29T22:52:49.620Z,62.59
2022-07-29T22:55:20.554Z,62.58
2022-07-29T22:57:51.271Z,62.31
2022-07-29T23:00:21.610Z,61.95
2022-07-29T23:02:52.548Z,61.99
2022-07-29T23:05:22.913Z,62.29
2022-07-29T23:07:54.172Z,62.97
2022-07-29T23:10:24.746Z,63.15
2022-07-29T23:12:55.887Z,63.09
2022-07-29T23:15:26.631Z,62.45
2022-07-29T23:17:57.455Z,62.53
2022-07-29T23:20:27.983Z,62.66
2022-07-29T23:22:58.647Z,62.70
2022-07-29T23:25:29.139Z,62.94
2022-07-29T23:27:59.846Z,63.12
2022-07-29T23:30:31.184Z,63.39
2022-07-29T23:33:02.367Z,63.40
2022-07-29T23:35:32.937Z,63.62
2022-07-29T23:38:04.344Z,63.81
2022-07-29T23:40:34.882Z,64.20
2022-07-29T23:43:08.806Z,64.13
2022-07-29T23:45:44.966Z,64.19
2022-07-29T23:48:19.503Z,64.47
2022-07-29T23:50:49.894Z,64.64
2022-07-29T23:53:20.966Z,64.55
2022-07-29T23:55:51.358Z,64.86
2022-07-29T23:58:22.300Z,65.12
